sensor_id;sensor_type;location;lat;lon;timestamp;P1;durP1;ratioP1;P2;durP2;ratioP2
25057;SDS011;13057;50.978;11.034;2023-04-03T00:01:37;6.70;;;1.20;;
25057;SDS011;13057;50.978;11.034;2023-04-03T00:04:04;4.57;;;1.30;;
25057;SDS011;13057;50.978;11.034;2023-04-03T00:06:30;4.47;;;1.10;;
25057;SDS011;13057;50.978;11.034;2023-04-03T00:08:56;5.50;;;1.00;;
25057;SDS011;13057;50.978;11.034;2023-04-03T00:11:22;3.28;;;1.30;;
25057;SDS011;13057;50.978;11.034;2023-04-03T00:13:49;2.95;;;1.10;;
25057;SDS011;13057;50.978;11.034;2023-04-03T00:16:14;5.65;;;1.23;;
25057;SDS011;13057;50.978;11.034;2023-04-03T00:18:42;3.88;;;1.20;;
25057;SDS011;13057;50.978;11.034;2023-04-03T00:21:09;4.20;;;1.17;;
25057;SDS011;13057;50.978;11.034;2023-04-03T00:23:37;5.25;;;1.33;;
25057;SDS011;13057;50.978;11.034;2023-04-03T00:26:03;5.55;;;1.73;;
25057;SDS011;13057;50.978;11.034;2023-04-03T00:28:29;3.88;;;1.38;;
25057;SDS011;13057;50.978;11.034;2023-04-03T00:30:54;4.30;;;1.55;;
25057;SDS011;13057;50.978;11.034;2023-04-03T00:33:21;4.57;;;1.60;;
25057;SDS011;13057;50.978;11.034;2023-04-03T00:35:47;5.13;;;1.80;;
25057;SDS011;13057;50.978;11.034;2023-04-03T00:38:13;4.25;;;1.60;;
25057;SDS011;13057;50.978;11.034;2023-04-03T00:40:42;5.25;;;1.33;;
25057;SDS011;13057;50.978;11.034;2023-04-03T00:43:11;4.13;;;1.58;;
25057;SDS011;13057;50.978;11.034;2023-04-03T00:45:41;4.70;;;1.40;;
25057;SDS011;13057;50.978;11.034;2023-04-03T00:48:11;5.13;;;1.90;;
25057;SDS011;13057;50.978;11.034;2023-04-03T00:50:41;4.63;;;1.70;;
25057;SDS011;13057;50.978;11.034;2023-04-03T00:53:09;4.88;;;1.60;;
25057;SDS011;13057;50.978;11.034;2023-04-03T00:55:39;5.82;;;1.90;;
25057;SDS011;13057;50.978;11.034;2023-04-03T00:58:07;5.07;;;1.55;;
25057;SDS011;13057;50.978;11.034;2023-04-03T01:00:35;3.13;;;1.60;;
25057;SDS011;13057;50.978;11.034;2023-04-03T01:03:03;4.65;;;1.60;;
25057;SDS011;13057;50.978;11.034;2023-04-03T01:05:30;4.15;;;1.42;;
25057;SDS011;13057;50.978;11.034;2023-04-03T01:07:56;5.25;;;1.42;;
25057;SDS011;13057;50.978;11.034;2023-04-03T01:10:22;6.30;;;1.80;;
25057;SDS011;13057;50.978;11.034;2023-04-03T01:12:50;4.35;;;1.75;;
25057;SDS011;13057;50.978;11.034;2023-04-03T01:15:20;7.93;;;2.00;;
25057;SDS011;13057;50.978;11.034;2023-04-03T01:17:50;5.43;;;1.97;;
25057;SDS011;13057;50.978;11.034;2023-04-03T01:23:19;4.85;;;1.70;;
25057;SDS011;13057;50.978;11.034;2023-04-03T01:25:55;4.93;;;1.88;;
25057;SDS011;13057;50.978;11.034;2023-04-03T01:28:24;6.13;;;1.95;;
25057;SDS011;13057;50.978;11.034;2023-04-03T01:30:56;5.65;;;1.73;;
25057;SDS011;13057;50.978;11.034;2023-04-03T01:33:37;7.25;;;1.60;;
25057;SDS011;13057;50.978;11.034;2023-04-03T01:36:03;4.70;;;1.80;;
25057;SDS011;13057;50.978;11.034;2023-04-03T01:38:30;3.85;;;1.42;;
25057;SDS011;13057;50.978;11.034;2023-04-03T01:40:56;4.65;;;1.70;;
25057;SDS011;13057;50.978;11.034;2023-04-03T01:43:22;6.65;;;1.70;;
25057;SDS011;13057;50.978;11.034;2023-04-03T01:45:48;6.53;;;1.63;;
25057;SDS011;13057;50.978;11.034;2023-04-03T01:48:15;5.78;;;1.85;;
25057;SDS011;13057;50.978;11.034;2023-04-03T01:50:41;4.00;;;1.52;;
25057;SDS011;13057;50.978;11.034;2023-04-03T01:53:07;5.90;;;2.00;;
25057;SDS011;13057;50.978;11.034;2023-04-03T01:55:33;3.22;;;1.45;;
25057;SDS011;13057;50.978;11.034;2023-04-03T01:57:59;3.03;;;1.77;;
25057;SDS011;13057;50.978;11.034;2023-04-03T02:00:25;6.68;;;1.85;;
25057;SDS011;13057;50.978;11.034;2023-04-03T02:02:51;4.85;;;2.10;;
25057;SDS011;13057;50.978;11.034;2023-04-03T02:05:18;7.80;;;1.98;;
25057;SDS011;13057;50.978;11.034;2023-04-03T02:07:44;3.60;;;1.50;;
25057;SDS011;13057;50.978;11.034;2023-04-03T02:10:10;6.70;;;1.70;;
25057;SDS011;13057;50.978;11.034;2023-04-03T02:12:37;5.15;;;1.85;;
25057;SDS011;13057;50.978;11.034;2023-04-03T02:15:04;7.25;;;1.77;;
25057;SDS011;13057;50.978;11.034;2023-04-03T02:17:30;5.93;;;1.85;;
25057;SDS011;13057;50.978;11.034;2023-04-03T02:19:56;6.63;;;1.60;;
25057;SDS011;13057;50.978;11.034;2023-04-03T02:22:21;8.60;;;2.03;;
25057;SDS011;13057;50.978;11.034;2023-04-03T02:24:48;4.75;;;1.90;;
25057;SDS011;13057;50.978;11.034;2023-04-03T02:27:13;4.10;;;1.67;;
25057;SDS011;13057;50.978;11.034;2023-04-03T02:29:39;5.40;;;1.65;;
25057;SDS011;13057;50.978;11.034;2023-04-03T02:32:05;8.23;;;1.80;;
25057;SDS011;13057;50.978;11.034;2023-04-03T02:34:32;5.65;;;1.83;;
25057;SDS011;13057;50.978;11.034;2023-04-03T02:36:58;4.85;;;1.50;;
25057;SDS011;13057;50.978;11.034;2023-04-03T02:39:24;5.88;;;1.65;;
25057;SDS011;13057;50.978;11.034;2023-04-03T02:41:50;4.80;;;1.63;;
25057;SDS011;13057;50.978;11.034;2023-04-03T02:44:16;5.38;;;1.63;;
25057;SDS011;13057;50.978;11.034;2023-04-03T02:46:42;3.50;;;1.80;;
25057;SDS011;13057;50.978;11.034;2023-04-03T02:49:08;5.63;;;1.85;;
25057;SDS011;13057;50.978;11.034;2023-04-03T02:51:34;5.07;;;1.70;;
25057;SDS011;13057;50.978;11.034;2023-04-03T02:54:00;5.68;;;1.73;;
25057;SDS011;13057;50.978;11.034;2023-04-03T02:56:26;5.03;;;1.80;;
25057;SDS011;13057;50.978;11.034;2023-04-03T02:58:52;5.18;;;1.70;;
25057;SDS011;13057;50.978;11.034;2023-04-03T03:01:18;4.97;;;1.85;;
25057;SDS011;13057;50.978;11.034;2023-04-03T03:03:44;5.15;;;2.10;;
25057;SDS011;13057;50.978;11.034;2023-04-03T03:06:12;6.55;;;1.95;;
25057;SDS011;13057;50.978;11.034;2023-04-03T03:08:39;3.97;;;1.92;;
25057;SDS011;13057;50.978;11.034;2023-04-03T03:11:06;6.47;;;2.10;;
25057;SDS011;13057;50.978;11.034;2023-04-03T03:13:33;4.15;;;1.90;;
25057;SDS011;13057;50.978;11.034;2023-04-03T03:15:59;6.15;;;2.47;;
25057;SDS011;13057;50.978;11.034;2023-04-03T03:18:25;5.57;;;1.92;;
25057;SDS011;13057;50.978;11.034;2023-04-03T03:20:52;6.15;;;2.20;;
25057;SDS011;13057;50.978;11.034;2023-04-03T03:23:19;7.55;;;2.47;;
25057;SDS011;13057;50.978;11.034;2023-04-03T03:25:46;4.88;;;2.15;;
25057;SDS011;13057;50.978;11.034;2023-04-03T03:28:12;4.40;;;2.45;;
25057;SDS011;13057;50.978;11.034;2023-04-03T03:30:37;4.15;;;2.38;;
25057;SDS011;13057;50.978;11.034;2023-04-03T03:33:04;7.55;;;2.50;;
25057;SDS011;13057;50.978;11.034;2023-04-03T03:35:30;9.80;;;2.45;;
25057;SDS011;13057;50.978;11.034;2023-04-03T03:37:55;7.10;;;2.20;;
25057;SDS011;13057;50.978;11.034;2023-04-03T03:40:21;6.35;;;2.50;;
25057;SDS011;13057;50.978;11.034;2023-04-03T03:42:48;7.50;;;2.05;;
25057;SDS011;13057;50.978;11.034;2023-04-03T03:45:14;5.63;;;2.30;;
25057;SDS011;13057;50.978;11.034;2023-04-03T03:47:40;10.50;;;2.60;;
25057;SDS011;13057;50.978;11.034;2023-04-03T03:50:06;4.50;;;2.13;;
25057;SDS011;13057;50.978;11.034;2023-04-03T03:52:32;6.55;;;2.58;;
25057;SDS011;13057;50.978;11.034;2023-04-03T03:54:58;10.52;;;2.95;;
25057;SDS011;13057;50.978;11.034;2023-04-03T03:57:24;7.65;;;2.55;;
25057;SDS011;13057;50.978;11.034;2023-04-03T03:59:53;5.68;;;2.17;;
25057;SDS011;13057;50.978;11.034;2023-04-03T04:02:19;3.78;;;2.55;;
25057;SDS011;13057;50.978;11.034;2023-04-03T04:04:44;8.50;;;2.65;;
25057;SDS011;13057;50.978;11.034;2023-04-03T04:07:11;5.03;;;2.40;;
25057;SDS011;13057;50.978;11.034;2023-04-03T04:09:36;6.05;;;2.55;;
25057;SDS011;13057;50.978;11.034;2023-04-03T04:12:02;5.28;;;2.45;;
25057;SDS011;13057;50.978;11.034;2023-04-03T04:14:28;6.15;;;2.35;;
25057;SDS011;13057;50.978;11.034;2023-04-03T04:16:54;7.60;;;2.40;;
25057;SDS011;13057;50.978;11.034;2023-04-03T04:19:20;7.88;;;2.60;;
25057;SDS011;13057;50.978;11.034;2023-04-03T04:21:46;5.15;;;2.40;;
25057;SDS011;13057;50.978;11.034;2023-04-03T04:24:12;5.93;;;2.30;;
25057;SDS011;13057;50.978;11.034;2023-04-03T04:26:38;9.10;;;2.90;;
25057;SDS011;13057;50.978;11.034;2023-04-03T04:29:04;13.07;;;3.10;;
25057;SDS011;13057;50.978;11.034;2023-04-03T04:31:29;8.27;;;3.03;;
25057;SDS011;13057;50.978;11.034;2023-04-03T04:33:55;7.07;;;2.60;;
25057;SDS011;13057;50.978;11.034;2023-04-03T04:36:21;7.07;;;2.78;;
25057;SDS011;13057;50.978;11.034;2023-04-03T04:38:47;4.47;;;2.50;;
25057;SDS011;13057;50.978;11.034;2023-04-03T04:41:13;8.55;;;3.30;;
25057;SDS011;13057;50.978;11.034;2023-04-03T04:43:39;6.53;;;2.67;;
25057;SDS011;13057;50.978;11.034;2023-04-03T04:46:07;7.53;;;3.13;;
25057;SDS011;13057;50.978;11.034;2023-04-03T04:48:36;6.45;;;2.83;;
25057;SDS011;13057;50.978;11.034;2023-04-03T04:51:02;6.93;;;3.00;;
25057;SDS011;13057;50.978;11.034;2023-04-03T04:53:28;8.77;;;2.90;;
25057;SDS011;13057;50.978;11.034;2023-04-03T04:55:55;7.55;;;3.10;;
25057;SDS011;13057;50.978;11.034;2023-04-03T04:58:20;5.93;;;2.60;;
25057;SDS011;13057;50.978;11.034;2023-04-03T05:00:46;8.70;;;2.97;;
25057;SDS011;13057;50.978;11.034;2023-04-03T05:03:13;6.35;;;2.90;;
25057;SDS011;13057;50.978;11.034;2023-04-03T05:05:40;7.88;;;3.20;;
25057;SDS011;13057;50.978;11.034;2023-04-03T05:08:06;8.88;;;5.28;;
25057;SDS011;13057;50.978;11.034;2023-04-03T05:10:33;7.40;;;3.08;;
25057;SDS011;13057;50.978;11.034;2023-04-03T05:12:59;5.78;;;2.92;;
25057;SDS011;13057;50.978;11.034;2023-04-03T05:15:25;7.50;;;3.35;;
25057;SDS011;13057;50.978;11.034;2023-04-03T05:17:51;6.15;;;3.17;;
25057;SDS011;13057;50.978;11.034;2023-04-03T05:20:17;6.22;;;3.45;;
25057;SDS011;13057;50.978;11.034;2023-04-03T05:22:43;10.60;;;3.22;;
25057;SDS011;13057;50.978;11.034;2023-04-03T05:25:09;6.70;;;2.60;;
25057;SDS011;13057;50.978;11.034;2023-04-03T05:27:35;7.90;;;3.05;;
25057;SDS011;13057;50.978;11.034;2023-04-03T05:30:01;6.97;;;3.05;;
25057;SDS011;13057;50.978;11.034;2023-04-03T05:32:27;4.93;;;2.95;;
25057;SDS011;13057;50.978;11.034;2023-04-03T05:34:54;6.20;;;2.60;;
25057;SDS011;13057;50.978;11.034;2023-04-03T05:37:19;4.68;;;2.67;;
25057;SDS011;13057;50.978;11.034;2023-04-03T05:39:46;8.48;;;3.30;;
25057;SDS011;13057;50.978;11.034;2023-04-03T05:42:12;5.22;;;3.13;;
25057;SDS011;13057;50.978;11.034;2023-04-03T05:44:39;6.90;;;3.05;;
25057;SDS011;13057;50.978;11.034;2023-04-03T05:47:05;6.90;;;3.03;;
25057;SDS011;13057;50.978;11.034;2023-04-03T05:49:32;8.90;;;3.28;;
25057;SDS011;13057;50.978;11.034;2023-04-03T05:51:57;6.38;;;3.00;;
25057;SDS011;13057;50.978;11.034;2023-04-03T05:54:25;6.57;;;3.03;;
25057;SDS011;13057;50.978;11.034;2023-04-03T05:56:52;6.05;;;3.03;;
25057;SDS011;13057;50.978;11.034;2023-04-03T05:59:19;12.70;;;4.10;;
25057;SDS011;13057;50.978;11.034;2023-04-03T06:01:46;7.13;;;3.20;;
25057;SDS011;13057;50.978;11.034;2023-04-03T06:04:12;6.47;;;3.00;;
25057;SDS011;13057;50.978;11.034;2023-04-03T06:06:45;6.50;;;2.72;;
25057;SDS011;13057;50.978;11.034;2023-04-03T06:09:17;6.05;;;3.28;;
25057;SDS011;13057;50.978;11.034;2023-04-03T06:11:44;8.52;;;2.80;;
25057;SDS011;13057;50.978;11.034;2023-04-03T06:14:11;7.18;;;3.10;;
25057;SDS011;13057;50.978;11.034;2023-04-03T06:16:37;5.10;;;2.75;;
25057;SDS011;13057;50.978;11.034;2023-04-03T06:19:04;6.55;;;3.22;;
25057;SDS011;13057;50.978;11.034;2023-04-03T06:21:31;5.75;;;2.70;;
25057;SDS011;13057;50.978;11.034;2023-04-03T06:23:57;4.95;;;2.92;;
25057;SDS011;13057;50.978;11.034;2023-04-03T06:26:23;5.93;;;2.80;;
25057;SDS011;13057;50.978;11.034;2023-04-03T06:28:49;5.25;;;2.33;;
25057;SDS011;13057;50.978;11.034;2023-04-03T06:31:15;7.18;;;2.45;;
25057;SDS011;13057;50.978;11.034;2023-04-03T06:33:42;5.28;;;2.10;;
25057;SDS011;13057;50.978;11.034;2023-04-03T06:36:09;5.93;;;2.42;;
25057;SDS011;13057;50.978;11.034;2023-04-03T06:38:36;7.70;;;2.30;;
25057;SDS011;13057;50.978;11.034;2023-04-03T06:41:03;5.20;;;1.70;;
25057;SDS011;13057;50.978;11.034;2023-04-03T06:43:29;6.30;;;2.10;;
25057;SDS011;13057;50.978;11.034;2023-04-03T06:45:56;5.22;;;1.98;;
25057;SDS011;13057;50.978;11.034;2023-04-03T06:48:22;4.32;;;2.00;;
25057;SDS011;13057;50.978;11.034;2023-04-03T06:50:48;5.10;;;1.60;;
25057;SDS011;13057;50.978;11.034;2023-04-03T06:53:14;7.32;;;1.95;;
25057;SDS011;13057;50.978;11.034;2023-04-03T06:55:40;5.15;;;1.88;;
25057;SDS011;13057;50.978;11.034;2023-04-03T06:58:07;8.35;;;2.08;;
25057;SDS011;13057;50.978;11.034;2023-04-03T07:00:34;5.40;;;1.98;;
25057;SDS011;13057;50.978;11.034;2023-04-03T07:03:00;4.50;;;1.88;;
25057;SDS011;13057;50.978;11.034;2023-04-03T07:05:26;7.30;;;2.05;;
25057;SDS011;13057;50.978;11.034;2023-04-03T07:07:54;5.32;;;1.80;;
25057;SDS011;13057;50.978;11.034;2023-04-03T07:10:20;6.13;;;2.20;;
25057;SDS011;13057;50.978;11.034;2023-04-03T07:12:46;8.63;;;3.08;;
25057;SDS011;13057;50.978;11.034;2023-04-03T07:15:12;10.25;;;3.65;;
25057;SDS011;13057;50.978;11.034;2023-04-03T07:17:42;10.13;;;5.13;;
25057;SDS011;13057;50.978;11.034;2023-04-03T07:20:08;19.10;;;5.35;;
25057;SDS011;13057;50.978;11.034;2023-04-03T07:22:34;11.60;;;4.68;;
25057;SDS011;13057;50.978;11.034;2023-04-03T07:25:00;21.52;;;5.75;;
25057;SDS011;13057;50.978;11.034;2023-04-03T07:27:26;11.27;;;5.50;;
25057;SDS011;13057;50.978;11.034;2023-04-03T07:29:51;14.10;;;5.20;;
25057;SDS011;13057;50.978;11.034;2023-04-03T07:32:17;11.35;;;5.03;;
25057;SDS011;13057;50.978;11.034;2023-04-03T07:34:43;10.15;;;4.43;;
25057;SDS011;13057;50.978;11.034;2023-04-03T07:37:10;12.88;;;3.85;;
25057;SDS011;13057;50.978;11.034;2023-04-03T07:39:35;8.30;;;4.03;;
25057;SDS011;13057;50.978;11.034;2023-04-03T07:42:02;7.20;;;3.88;;
25057;SDS011;13057;50.978;11.034;2023-04-03T07:44:28;6.53;;;2.60;;
25057;SDS011;13057;50.978;11.034;2023-04-03T07:46:54;9.90;;;3.28;;
25057;SDS011;13057;50.978;11.034;2023-04-03T07:49:21;8.93;;;3.33;;
25057;SDS011;13057;50.978;11.034;2023-04-03T07:51:49;8.15;;;3.03;;
25057;SDS011;13057;50.978;11.034;2023-04-03T07:54:15;5.85;;;2.88;;
25057;SDS011;13057;50.978;11.034;2023-04-03T07:56:41;5.03;;;2.47;;
25057;SDS011;13057;50.978;11.034;2023-04-03T07:59:08;7.55;;;3.00;;
25057;SDS011;13057;50.978;11.034;2023-04-03T08:01:35;4.22;;;2.00;;
25057;SDS011;13057;50.978;11.034;2023-04-03T08:04:01;8.20;;;1.98;;
25057;SDS011;13057;50.978;11.034;2023-04-03T08:06:27;5.82;;;1.98;;
25057;SDS011;13057;50.978;11.034;2023-04-03T08:08:55;7.57;;;2.08;;
25057;SDS011;13057;50.978;11.034;2023-04-03T08:11:21;4.35;;;1.73;;
25057;SDS011;13057;50.978;11.034;2023-04-03T08:13:47;4.85;;;1.58;;
25057;SDS011;13057;50.978;11.034;2023-04-03T08:16:16;2.75;;;1.50;;
25057;SDS011;13057;50.978;11.034;2023-04-03T08:18:43;4.57;;;1.80;;
25057;SDS011;13057;50.978;11.034;2023-04-03T08:21:09;6.20;;;1.65;;
25057;SDS011;13057;50.978;11.034;2023-04-03T08:23:37;5.20;;;1.67;;
25057;SDS011;13057;50.978;11.034;2023-04-03T08:26:06;4.88;;;1.88;;
25057;SDS011;13057;50.978;11.034;2023-04-03T08:28:34;4.15;;;2.05;;
25057;SDS011;13057;50.978;11.034;2023-04-03T08:31:04;5.35;;;1.65;;
25057;SDS011;13057;50.978;11.034;2023-04-03T08:33:32;3.47;;;1.67;;
25057;SDS011;13057;50.978;11.034;2023-04-03T08:35:59;5.25;;;2.03;;
25057;SDS011;13057;50.978;11.034;2023-04-03T08:38:24;5.80;;;1.70;;
25057;SDS011;13057;50.978;11.034;2023-04-03T08:43:49;3.78;;;1.75;;
25057;SDS011;13057;50.978;11.034;2023-04-03T08:46:40;5.25;;;2.58;;
25057;SDS011;13057;50.978;11.034;2023-04-03T08:49:28;3.60;;;1.50;;
25057;SDS011;13057;50.978;11.034;2023-04-03T08:51:57;3.70;;;1.80;;
25057;SDS011;13057;50.978;11.034;2023-04-03T08:54:30;2.90;;;1.42;;
25057;SDS011;13057;50.978;11.034;2023-04-03T08:56:59;5.15;;;1.40;;
25057;SDS011;13057;50.978;11.034;2023-04-03T08:59:31;4.38;;;1.60;;
25057;SDS011;13057;50.978;11.034;2023-04-03T09:02:00;5.47;;;1.45;;
25057;SDS011;13057;50.978;11.034;2023-04-03T09:07:02;4.65;;;1.73;;
25057;SDS011;13057;50.978;11.034;2023-04-03T09:09:39;2.17;;;1.10;;
25057;SDS011;13057;50.978;11.034;2023-04-03T09:12:13;3.63;;;1.00;;
25057;SDS011;13057;50.978;11.034;2023-04-03T09:15:02;4.45;;;1.17;;
25057;SDS011;13057;50.978;11.034;2023-04-03T09:17:42;4.53;;;1.45;;
25057;SDS011;13057;50.978;11.034;2023-04-03T09:23:13;3.00;;;1.10;;
25057;SDS011;13057;50.978;11.034;2023-04-03T09:28:15;3.50;;;1.15;;
25057;SDS011;13057;50.978;11.034;2023-04-03T09:30:41;6.57;;;1.50;;
25057;SDS011;13057;50.978;11.034;2023-04-03T09:33:07;4.15;;;1.33;;
25057;SDS011;13057;50.978;11.034;2023-04-03T09:35:35;3.05;;;1.23;;
25057;SDS011;13057;50.978;11.034;2023-04-03T09:38:17;3.25;;;1.23;;
25057;SDS011;13057;50.978;11.034;2023-04-03T09:40:49;3.95;;;1.08;;
25057;SDS011;13057;50.978;11.034;2023-04-03T09:43:30;5.55;;;1.23;;
25057;SDS011;13057;50.978;11.034;2023-04-03T09:46:15;4.45;;;1.00;;
25057;SDS011;13057;50.978;11.034;2023-04-03T09:48:50;2.75;;;1.23;;
25057;SDS011;13057;50.978;11.034;2023-04-03T09:51:17;3.42;;;0.90;;
25057;SDS011;13057;50.978;11.034;2023-04-03T09:53:45;3.72;;;1.35;;
25057;SDS011;13057;50.978;11.034;2023-04-03T09:56:19;4.00;;;1.13;;
25057;SDS011;13057;50.978;11.034;2023-04-03T09:59:05;3.63;;;1.20;;
25057;SDS011;13057;50.978;11.034;2023-04-03T10:01:34;3.20;;;1.00;;
25057;SDS011;13057;50.978;11.034;2023-04-03T10:06:41;5.70;;;1.23;;
25057;SDS011;13057;50.978;11.034;2023-04-03T10:09:21;3.20;;;1.38;;
25057;SDS011;13057;50.978;11.034;2023-04-03T10:11:57;2.38;;;1.25;;
25057;SDS011;13057;50.978;11.034;2023-04-03T10:14:29;4.95;;;1.20;;
25057;SDS011;13057;50.978;11.034;2023-04-03T10:17:12;8.32;;;1.40;;
25057;SDS011;13057;50.978;11.034;2023-04-03T10:19:53;4.80;;;1.05;;
25057;SDS011;13057;50.978;11.034;2023-04-03T10:22:37;2.95;;;1.10;;
25057;SDS011;13057;50.978;11.034;2023-04-03T10:25:20;4.40;;;1.23;;
25057;SDS011;13057;50.978;11.034;2023-04-03T10:28:01;2.30;;;1.17;;
25057;SDS011;13057;50.978;11.034;2023-04-03T10:30:53;6.40;;;1.45;;
25057;SDS011;13057;50.978;11.034;2023-04-03T10:33:46;5.65;;;1.40;;
25057;SDS011;13057;50.978;11.034;2023-04-03T10:36:25;5.25;;;1.30;;
25057;SDS011;13057;50.978;11.034;2023-04-03T10:39:11;6.55;;;1.48;;
25057;SDS011;13057;50.978;11.034;2023-04-03T10:41:57;2.38;;;1.40;;
25057;SDS011;13057;50.978;11.034;2023-04-03T10:44:42;3.70;;;1.30;;
25057;SDS011;13057;50.978;11.034;2023-04-03T10:47:37;4.72;;;1.63;;
25057;SDS011;13057;50.978;11.034;2023-04-03T10:50:49;3.42;;;1.50;;
25057;SDS011;13057;50.978;11.034;2023-04-03T10:54:09;1.77;;;1.00;;
25057;SDS011;13057;50.978;11.034;2023-04-03T10:56:44;5.53;;;1.50;;
25057;SDS011;13057;50.978;11.034;2023-04-03T11:01:48;3.83;;;1.48;;
25057;SDS011;13057;50.978;11.034;2023-04-03T11:04:19;5.07;;;1.50;;
25057;SDS011;13057;50.978;11.034;2023-04-03T11:06:49;3.80;;;1.30;;
25057;SDS011;13057;50.978;11.034;2023-04-03T11:09:23;2.05;;;1.30;;
25057;SDS011;13057;50.978;11.034;2023-04-03T11:11:55;5.15;;;1.38;;
25057;SDS011;13057;50.978;11.034;2023-04-03T11:14:28;3.97;;;1.60;;
25057;SDS011;13057;50.978;11.034;2023-04-03T11:17:01;3.15;;;1.40;;
25057;SDS011;13057;50.978;11.034;2023-04-03T11:19:52;5.35;;;1.90;;
25057;SDS011;13057;50.978;11.034;2023-04-03T11:22:43;3.92;;;1.63;;
25057;SDS011;13057;50.978;11.034;2023-04-03T11:25:15;3.45;;;1.50;;
25057;SDS011;13057;50.978;11.034;2023-04-03T11:27:48;3.72;;;1.40;;
25057;SDS011;13057;50.978;11.034;2023-04-03T11:30:23;4.07;;;1.30;;
25057;SDS011;13057;50.978;11.034;2023-04-03T11:32:59;3.47;;;1.48;;
25057;SDS011;13057;50.978;11.034;2023-04-03T11:35:44;3.75;;;1.25;;
25057;SDS011;13057;50.978;11.034;2023-04-03T11:38:15;2.22;;;1.52;;
25057;SDS011;13057;50.978;11.034;2023-04-03T11:40:47;2.60;;;1.35;;
25057;SDS011;13057;50.978;11.034;2023-04-03T11:43:20;3.80;;;1.50;;
25057;SDS011;13057;50.978;11.034;2023-04-03T11:45:54;3.92;;;1.35;;
25057;SDS011;13057;50.978;11.034;2023-04-03T11:48:42;2.47;;;1.42;;
25057;SDS011;13057;50.978;11.034;2023-04-03T11:51:37;3.70;;;1.30;;
25057;SDS011;13057;50.978;11.034;2023-04-03T11:57:00;2.47;;;1.20;;
25057;SDS011;13057;50.978;11.034;2023-04-03T11:59:57;3.05;;;1.60;;
25057;SDS011;13057;50.978;11.034;2023-04-03T12:02:35;2.70;;;1.33;;
25057;SDS011;13057;50.978;11.034;2023-04-03T12:14:03;3.10;;;1.40;;
25057;SDS011;13057;50.978;11.034;2023-04-03T12:16:42;4.93;;;1.60;;
25057;SDS011;13057;50.978;11.034;2023-04-03T12:19:30;3.13;;;1.50;;
25057;SDS011;13057;50.978;11.034;2023-04-03T12:22:08;5.00;;;1.20;;
25057;SDS011;13057;50.978;11.034;2023-04-03T12:24:38;2.85;;;1.10;;
25057;SDS011;13057;50.978;11.034;2023-04-03T12:27:09;2.83;;;1.08;;
25057;SDS011;13057;50.978;11.034;2023-04-03T12:29:51;2.78;;;1.33;;
25057;SDS011;13057;50.978;11.034;2023-04-03T12:32:31;6.63;;;1.20;;
25057;SDS011;13057;50.978;11.034;2023-04-03T12:38:14;2.38;;;1.10;;
25057;SDS011;13057;50.978;11.034;2023-04-03T12:41:04;3.58;;;1.30;;
25057;SDS011;13057;50.978;11.034;2023-04-03T12:43:55;3.95;;;1.80;;
25057;SDS011;13057;50.978;11.034;2023-04-03T12:46:35;2.63;;;1.20;;
25057;SDS011;13057;50.978;11.034;2023-04-03T12:49:41;2.28;;;1.10;;
25057;SDS011;13057;50.978;11.034;2023-04-03T12:54:54;2.00;;;1.25;;
25057;SDS011;13057;50.978;11.034;2023-04-03T12:57:25;6.65;;;1.05;;
25057;SDS011;13057;50.978;11.034;2023-04-03T12:59:53;3.15;;;0.88;;
25057;SDS011;13057;50.978;11.034;2023-04-03T13:02:21;2.80;;;1.10;;
25057;SDS011;13057;50.978;11.034;2023-04-03T13:04:50;2.83;;;1.17;;
25057;SDS011;13057;50.978;11.034;2023-04-03T13:07:26;2.25;;;0.90;;
25057;SDS011;13057;50.978;11.034;2023-04-03T13:09:59;2.65;;;1.00;;
25057;SDS011;13057;50.978;11.034;2023-04-03T13:12:44;3.80;;;1.30;;
25057;SDS011;13057;50.978;11.034;2023-04-03T13:15:13;4.20;;;1.23;;
25057;SDS011;13057;50.978;11.034;2023-04-03T13:17:43;3.38;;;1.00;;
25057;SDS011;13057;50.978;11.034;2023-04-03T13:20:10;3.45;;;0.90;;
25057;SDS011;13057;50.978;11.034;2023-04-03T13:22:48;3.60;;;0.98;;
25057;SDS011;13057;50.978;11.034;2023-04-03T13:25:27;6.18;;;1.13;;
25057;SDS011;13057;50.978;11.034;2023-04-03T13:27:56;4.70;;;1.60;;
25057;SDS011;13057;50.978;11.034;2023-04-03T13:30:25;4.35;;;1.10;;
25057;SDS011;13057;50.978;11.034;2023-04-03T13:32:55;5.07;;;1.20;;
25057;SDS011;13057;50.978;11.034;2023-04-03T13:35:25;2.70;;;0.93;;
25057;SDS011;13057;50.978;11.034;2023-04-03T13:37:56;1.98;;;0.90;;
25057;SDS011;13057;50.978;11.034;2023-04-03T13:40:24;3.33;;;1.10;;
25057;SDS011;13057;50.978;11.034;2023-04-03T13:42:58;5.82;;;1.20;;
25057;SDS011;13057;50.978;11.034;2023-04-03T13:45:30;3.50;;;1.60;;
25057;SDS011;13057;50.978;11.034;2023-04-03T13:48:08;2.88;;;1.25;;
25057;SDS011;13057;50.978;11.034;2023-04-03T13:50:49;4.13;;;1.20;;
25057;SDS011;13057;50.978;11.034;2023-04-03T13:53:23;2.22;;;1.20;;
25057;SDS011;13057;50.978;11.034;2023-04-03T13:55:58;4.05;;;1.20;;
25057;SDS011;13057;50.978;11.034;2023-04-03T13:58:33;6.43;;;1.52;;
25057;SDS011;13057;50.978;11.034;2023-04-03T14:01:06;6.13;;;2.30;;
25057;SDS011;13057;50.978;11.034;2023-04-03T14:03:46;4.35;;;1.17;;
25057;SDS011;13057;50.978;11.034;2023-04-03T14:06:18;4.35;;;1.40;;
25057;SDS011;13057;50.978;11.034;2023-04-03T14:08:45;3.72;;;1.40;;
25057;SDS011;13057;50.978;11.034;2023-04-03T14:11:14;2.13;;;1.30;;
25057;SDS011;13057;50.978;11.034;2023-04-03T14:13:42;2.38;;;1.23;;
25057;SDS011;13057;50.978;11.034;2023-04-03T14:16:12;3.67;;;1.40;;
25057;SDS011;13057;50.978;11.034;2023-04-03T14:18:41;2.50;;;1.15;;
25057;SDS011;13057;50.978;11.034;2023-04-03T14:21:10;4.03;;;1.20;;
25057;SDS011;13057;50.978;11.034;2023-04-03T14:23:38;5.35;;;1.80;;
25057;SDS011;13057;50.978;11.034;2023-04-03T14:26:08;3.85;;;1.13;;
25057;SDS011;13057;50.978;11.034;2023-04-03T14:28:41;3.88;;;1.20;;
25057;SDS011;13057;50.978;11.034;2023-04-03T14:31:09;3.70;;;1.20;;
25057;SDS011;13057;50.978;11.034;2023-04-03T14:33:36;5.78;;;1.60;;
25057;SDS011;13057;50.978;11.034;2023-04-03T14:36:13;2.80;;;1.17;;
25057;SDS011;13057;50.978;11.034;2023-04-03T14:38:41;3.47;;;1.33;;
25057;SDS011;13057;50.978;11.034;2023-04-03T14:41:10;3.20;;;1.33;;
25057;SDS011;13057;50.978;11.034;2023-04-03T14:46:11;6.30;;;1.40;;
25057;SDS011;13057;50.978;11.034;2023-04-03T14:48:40;2.95;;;1.33;;
25057;SDS011;13057;50.978;11.034;2023-04-03T14:51:06;2.05;;;1.15;;
25057;SDS011;13057;50.978;11.034;2023-04-03T14:53:34;4.03;;;1.40;;
25057;SDS011;13057;50.978;11.034;2023-04-03T14:56:02;3.63;;;1.13;;
25057;SDS011;13057;50.978;11.034;2023-04-03T14:58:38;2.45;;;1.45;;
25057;SDS011;13057;50.978;11.034;2023-04-03T15:01:04;3.25;;;1.30;;
25057;SDS011;13057;50.978;11.034;2023-04-03T15:03:30;3.25;;;1.50;;
25057;SDS011;13057;50.978;11.034;2023-04-03T15:05:56;4.82;;;1.67;;
25057;SDS011;13057;50.978;11.034;2023-04-03T15:08:24;5.38;;;1.50;;
25057;SDS011;13057;50.978;11.034;2023-04-03T15:10:54;4.75;;;1.50;;
25057;SDS011;13057;50.978;11.034;2023-04-03T15:13:21;2.47;;;1.30;;
25057;SDS011;13057;50.978;11.034;2023-04-03T15:15:49;4.88;;;1.50;;
25057;SDS011;13057;50.978;11.034;2023-04-03T15:18:18;3.28;;;1.38;;
25057;SDS011;13057;50.978;11.034;2023-04-03T15:20:47;7.30;;;1.90;;
25057;SDS011;13057;50.978;11.034;2023-04-03T15:23:14;3.58;;;1.23;;
25057;SDS011;13057;50.978;11.034;2023-04-03T15:25:42;5.88;;;1.10;;
25057;SDS011;13057;50.978;11.034;2023-04-03T15:28:13;1.75;;;1.10;;
25057;SDS011;13057;50.978;11.034;2023-04-03T15:30:47;3.85;;;1.40;;